createdAt,value
2018-09-09T00:04:08.061Z,35.47
2018-09-09T00:09:15.903Z,35.53
2018-09-09T00:14:19.563Z,35.52
2018-09-09T00:19:23.215Z,35.96
2018-09-09T00:24:26.986Z,35.62
2018-09-09T00:29:30.730Z,35.78
2018-09-09T00:34:34.661Z,35.84
2018-09-09T00:39:38.684Z,36.04
2018-09-09T00:44:42.377Z,35.77
2018-09-09T00:49:51.144Z,35.96
2018-09-09T00:54:54.897Z,35.97
2018-09-09T00:59:58.639Z,36.01
2018-09-09T01:05:06.313Z,35.96
2018-09-09T01:10:09.963Z,35.83
2018-09-09T01:15:13.602Z,35.99
2018-09-09T01:20:17.219Z,36.08
2018-09-09T01:25:20.911Z,36.32
2018-09-09T01:30:24.597Z,36.56
2018-09-09T01:35:28.277Z,36.23
2018-09-09T01:40:31.962Z,36.31
2018-09-09T01:45:35.663Z,36.61
2018-09-09T01:50:39.374Z,36.81
2018-09-09T01:55:43.074Z,36.89
2018-09-09T02:00:46.774Z,37.00
2018-09-09T02:05:51.364Z,36.80
2018-09-09T02:10:59.517Z,37.17
2018-09-09T02:16:03.215Z,36.82
2018-09-09T02:21:06.956Z,36.77
2018-09-09T02:26:10.695Z,36.75
2018-09-09T02:31:14.416Z,36.86
2018-09-09T02:36:19.026Z,37.32
2018-09-09T02:41:22.697Z,37.44
2018-09-09T02:46:26.339Z,37.39
2018-09-09T02:51:30.054Z,37.58
2018-09-09T02:56:33.726Z,37.53
2018-09-09T03:01:37.418Z,37.49
2018-09-09T03:06:41.148Z,37.92
2018-09-09T03:11:45.015Z,37.92
2018-09-09T03:16:48.711Z,37.78
2018-09-09T03:21:52.518Z,38.04
2018-09-09T03:26:56.185Z,37.92
2018-09-09T03:31:59.829Z,37.66
2018-09-09T03:37:03.491Z,37.82
2018-09-09T03:42:07.343Z,37.95
2018-09-09T03:47:11.011Z,38.10
2018-09-09T03:52:14.755Z,37.94
2018-09-09T03:57:19.478Z,37.96
2018-09-09T04:02:23.142Z,37.96
2018-09-09T04:07:27.558Z,38.34
2018-09-09T04:12:31.327Z,37.92
2018-09-09T04:17:35.022Z,38.34
2018-09-09T04:22:38.656Z,38.21
2018-09-09T04:27:42.274Z,38.20
2018-09-09T04:32:45.976Z,38.98
2018-09-09T04:37:49.616Z,39.71
2018-09-09T04:42:53.358Z,39.86
2018-09-09T04:47:57.046Z,39.76
2018-09-09T04:53:00.802Z,39.65
2018-09-09T04:58:04.448Z,39.95
2018-09-09T05:03:08.061Z,39.73
2018-09-09T05:08:12.472Z,39.84
2018-09-09T05:13:16.157Z,39.71
2018-09-09T05:18:19.781Z,40.15
2018-09-09T05:23:23.394Z,40.54
2018-09-09T05:28:27.042Z,39.93
2018-09-09T05:33:30.855Z,40.25
2018-09-09T05:38:34.529Z,40.09
2018-09-09T05:43:38.149Z,40.01
2018-09-09T05:48:41.804Z,40.12
2018-09-09T05:53:45.455Z,40.18
2018-09-09T05:58:50.100Z,39.96
2018-09-09T06:03:53.843Z,39.83
2018-09-09T06:08:58.262Z,40.15
2018-09-09T06:14:01.947Z,40.02
2018-09-09T06:19:05.959Z,40.41
2018-09-09T06:24:09.602Z,40.95
2018-09-09T06:29:13.241Z,41.10
2018-09-09T06:34:16.937Z,41.17
2018-09-09T06:39:20.663Z,40.76
2018-09-09T06:44:24.239Z,40.12
2018-09-09T06:49:27.855Z,40.26
2018-09-09T06:54:31.554Z,40.46
2018-09-09T06:59:35.186Z,40.17
2018-09-09T07:04:38.867Z,40.23
2018-09-09T07:09:42.545Z,39.72
2018-09-09T07:14:46.230Z,39.88
2018-09-09T07:19:49.874Z,40.64
2018-09-09T07:24:53.527Z,40.28
2018-09-09T07:29:57.146Z,39.79
2018-09-09T07:35:00.914Z,40.68
2018-09-09T07:40:08.624Z,41.10
2018-09-09T07:45:12.711Z,40.20
2018-09-09T07:50:16.778Z,40.58
2018-09-09T07:55:20.589Z,40.38
2018-09-09T08:00:25.602Z,39.61
2018-09-09T08:05:29.993Z,39.40
2018-09-09T08:10:33.879Z,41.37
2018-09-09T08:15:38.459Z,39.72
2018-09-09T08:20:43.499Z,39.94
2018-09-09T08:25:51.158Z,39.90
2018-09-09T08:30:56.074Z,40.57
2018-09-09T08:36:00.223Z,39.27
2018-09-09T08:41:04.907Z,39.35
2018-09-09T08:46:08.888Z,38.56
2018-09-09T08:51:12.848Z,39.91
2018-09-09T08:56:17.301Z,40.69
2018-09-09T09:01:21.044Z,39.64
2018-09-09T09:06:27.244Z,39.48
2018-09-09T09:11:32.326Z,39.00
2018-09-09T09:16:36.957Z,39.87
2018-09-09T09:21:41.848Z,39.09
2018-09-09T09:26:45.619Z,39.35
2018-09-09T09:31:49.531Z,39.02
2018-09-09T09:36:53.173Z,37.81
2018-09-09T09:41:58.068Z,38.46
2018-09-09T09:47:01.851Z,37.28
2018-09-09T09:52:05.503Z,36.96
2018-09-09T09:57:09.816Z,37.19
2018-09-09T10:02:13.548Z,36.94
2018-09-09T10:07:17.352Z,37.04
2018-09-09T10:12:20.995Z,36.87
2018-09-09T10:17:24.619Z,36.31
2018-09-09T10:22:28.362Z,36.42
2018-09-09T10:27:31.994Z,35.00
2018-09-09T10:32:35.650Z,34.83
2018-09-09T10:37:39.276Z,35.22
2018-09-09T10:42:42.932Z,35.49
2018-09-09T10:47:46.616Z,34.83
2018-09-09T10:52:50.368Z,34.72
2018-09-09T10:57:53.993Z,35.51
2018-09-09T11:02:57.603Z,35.25
2018-09-09T11:08:01.198Z,35.28
2018-09-09T11:13:04.916Z,35.12
2018-09-09T11:18:09.144Z,35.08
2018-09-09T11:23:12.753Z,34.01
2018-09-09T11:28:16.313Z,33.32
2018-09-09T11:33:20.131Z,34.12
2018-09-09T11:38:23.757Z,34.32
2018-09-09T11:43:27.397Z,33.98
2018-09-09T11:48:31.261Z,33.35
2018-09-09T11:53:35.055Z,34.28
2018-09-09T11:58:38.795Z,33.22
2018-09-09T12:03:42.520Z,32.83
2018-09-09T12:08:46.163Z,32.37
2018-09-09T12:13:49.866Z,33.14
2018-09-09T12:18:53.473Z,32.16
2018-09-09T12:23:57.102Z,32.43
2018-09-09T12:29:00.838Z,32.99
2018-09-09T12:34:10.512Z,33.48
2018-09-09T12:39:13.985Z,33.69
2018-09-09T12:44:22.914Z,33.76
2018-09-09T12:49:27.188Z,33.87
2018-09-09T12:54:30.972Z,34.15
2018-09-09T12:59:35.352Z,34.19
2018-09-09T13:04:38.905Z,34.48
2018-09-09T13:09:43.296Z,34.21
2018-09-09T13:14:47.123Z,34.70
2018-09-09T13:19:50.615Z,34.64
2018-09-09T13:58:37.699Z,35.05
2018-09-09T14:03:41.308Z,35.26
2018-09-09T14:08:44.866Z,35.57
2018-09-09T14:13:48.312Z,35.82
2018-09-09T14:18:51.784Z,35.69
2018-09-09T14:23:55.234Z,35.84
2018-09-09T14:28:58.697Z,35.35
2018-09-09T14:34:02.182Z,34.95
2018-09-09T14:39:07.945Z,35.35
2018-09-09T14:44:11.407Z,35.65
2018-09-09T14:49:14.858Z,35.63
2018-09-09T14:54:18.319Z,36.01
2018-09-09T14:59:21.800Z,36.24
2018-09-09T15:04:25.267Z,36.45
2018-09-09T15:09:28.726Z,36.33
2018-09-09T15:14:32.200Z,36.21
2018-09-09T15:19:35.682Z,36.37
2018-09-09T15:24:39.126Z,36.38
2018-09-09T15:29:42.567Z,36.57
2018-09-09T15:34:46.002Z,36.47
2018-09-09T15:39:49.460Z,36.68
2018-09-09T15:44:52.907Z,36.92
2018-09-09T15:49:56.351Z,37.00
2018-09-09T15:54:59.796Z,36.81
2018-09-09T16:00:03.322Z,36.66
2018-09-09T16:05:07.365Z,37.01
2018-09-09T16:10:10.820Z,37.12
2018-09-09T16:15:14.319Z,37.25
2018-09-09T16:20:17.810Z,37.33
2018-09-09T16:25:21.289Z,37.51
2018-09-09T16:30:24.755Z,35.27
2018-09-09T16:35:28.819Z,35.49
2018-09-09T16:40:32.307Z,35.37
2018-09-09T16:45:35.980Z,35.67
2018-09-09T16:50:39.416Z,35.82
2018-09-09T16:55:42.898Z,35.43
2018-09-09T17:00:46.343Z,36.17
2018-09-09T17:05:49.931Z,36.56
2018-09-09T17:10:53.483Z,36.78
2018-09-09T17:15:56.947Z,36.33
2018-09-09T17:21:00.456Z,36.50
2018-09-09T17:26:04.150Z,36.68
2018-09-09T17:31:07.695Z,35.68
2018-09-09T17:36:11.155Z,34.42
2018-09-09T17:41:14.656Z,34.51
2018-09-09T17:46:18.354Z,35.75
2018-09-09T17:51:21.810Z,35.87
2018-09-09T17:56:25.267Z,35.77
2018-09-09T18:01:28.784Z,36.07
2018-09-09T18:06:32.296Z,36.33
2018-09-09T18:11:35.904Z,36.61
2018-09-09T18:16:39.399Z,36.47
2018-09-09T18:21:42.962Z,36.94
2018-09-09T18:26:46.429Z,36.82
2018-09-09T18:31:49.889Z,37.02
2018-09-09T18:36:53.363Z,37.00
2018-09-09T18:41:56.820Z,37.42
2018-09-09T18:47:00.302Z,37.30
2018-09-09T18:52:03.751Z,36.99
2018-09-09T18:57:07.195Z,37.12
2018-09-09T19:02:10.664Z,37.07
2018-09-09T19:07:14.135Z,37.45
2018-09-09T19:12:17.659Z,37.37
2018-09-09T19:17:21.156Z,37.40
2018-09-09T19:22:24.633Z,37.17
2018-09-09T19:27:28.248Z,37.55
2018-09-09T19:32:31.711Z,37.22
2018-09-09T19:37:35.154Z,37.53
2018-09-09T19:42:38.861Z,37.35
2018-09-09T19:47:42.328Z,37.69
2018-09-09T19:52:45.775Z,37.64
2018-09-09T19:57:49.724Z,37.38
2018-09-09T20:02:53.173Z,37.37
2018-09-09T20:07:56.632Z,37.75
2018-09-09T20:13:00.195Z,37.63
2018-09-09T20:18:03.679Z,37.61
2018-09-09T20:23:07.134Z,37.95
2018-09-09T20:28:10.666Z,38.12
2018-09-09T20:33:14.153Z,37.76
2018-09-09T20:38:17.630Z,38.04
2018-09-09T20:43:21.118Z,37.82
2018-09-09T20:48:24.584Z,37.73
2018-09-09T20:53:28.019Z,37.75
2018-09-09T20:58:31.622Z,37.57
2018-09-09T21:03:35.131Z,37.38
2018-09-09T21:08:38.568Z,37.31
2018-09-09T21:13:42.003Z,37.51
2018-09-09T21:18:45.515Z,37.64
2018-09-09T21:23:48.988Z,37.74
2018-09-09T21:28:52.454Z,37.24
2018-09-09T21:33:55.940Z,37.71
2018-09-09T21:38:59.372Z,37.60
2018-09-09T21:44:02.976Z,37.33
2018-09-09T21:49:06.858Z,37.39
2018-09-09T21:54:10.339Z,37.54
2018-09-09T21:59:13.846Z,37.44
2018-09-09T22:04:17.315Z,37.66
2018-09-09T22:09:20.781Z,37.51
2018-09-09T22:14:24.228Z,37.63
2018-09-09T22:19:27.839Z,37.44
2018-09-09T22:24:31.351Z,37.21
2018-09-09T22:29:34.858Z,37.34
2018-09-09T22:34:38.398Z,37.45
2018-09-09T22:39:41.880Z,37.38
2018-09-09T22:44:45.355Z,37.43
2018-09-09T22:49:48.819Z,37.35
2018-09-09T22:54:52.287Z,37.24
2018-09-09T22:59:55.848Z,37.19
2018-09-09T23:04:59.303Z,37.34
2018-09-09T23:10:02.816Z,36.90
2018-09-09T23:15:06.648Z,37.16
2018-09-09T23:20:10.106Z,37.18
2018-09-09T23:25:13.579Z,37.33
2018-09-09T23:30:17.099Z,37.19
2018-09-09T23:35:20.644Z,36.94
2018-09-09T23:40:24.124Z,37.16
2018-09-09T23:45:27.632Z,37.35
2018-09-09T23:50:31.255Z,37.03
2018-09-09T23:55:34.736Z,37.44
